Time;durP1;ratioP1;P1;durP2;ratioP2;P2;SDS_P1;SDS_P2;PMS_P1;PMS_P2;Temp;Humidity;BMP_temperature;BMP_pressure;BME280_temperature;BME280_humidity;BME280_pressure;Samples;Min_cycle;Max_cycle;Signal;HPM_P1;HPM_P2
2021/03/15 00:01:26;;;;;;;6.73;3.37;;;;;;;1.36;100.00;99622.68;1793633;80;21551;-79
2021/03/15 00:03:54;;;;;;;6.00;3.27;;;;;;;1.28;100.00;99621.97;1793538;80;20991;-78
2021/03/15 00:06:22;;;;;;;3.60;2.90;;;;;;;1.23;100.00;99617.98;1793602;80;21030;-79
2021/03/15 00:08:52;;;;;;;2.33;1.77;;;;;;;1.20;100.00;99614.22;1793549;80;21030;-79
2021/03/15 00:11:19;;;;;;;3.20;2.73;;;;;;;1.20;100.00;99620.88;1793497;80;21817;-80
2021/03/15 00:13:49;;;;;;;6.03;2.60;;;;;;;1.21;100.00;99621.26;1793431;80;21014;-78
2021/03/15 00:16:18;;;;;;;2.87;2.20;;;;;;;1.24;100.00;99614.34;1793720;80;21026;-80
2021/03/15 00:18:46;;;;;;;7.47;3.37;;;;;;;1.25;100.00;99607.56;1793570;80;21014;-79
2021/03/15 00:21:15;;;;;;;6.53;3.13;;;;;;;1.25;100.00;99618.21;1793571;80;21001;-79
2021/03/15 00:23:43;;;;;;;6.03;3.03;;;;;;;1.26;100.00;99624.41;1793452;80;21182;-78
2021/03/15 00:26:10;;;;;;;2.67;2.17;;;;;;;1.29;100.00;99631.67;1793679;80;21192;-79
2021/03/15 00:28:40;;;;;;;4.90;2.83;;;;;;;1.31;100.00;99639.05;1793518;80;21045;-79
2021/03/15 00:31:09;;;;;;;3.43;2.40;;;;;;;1.35;100.00;99631.66;1793485;80;20998;-78
2021/03/15 00:33:37;;;;;;;3.30;2.20;;;;;;;1.37;100.00;99626.22;1793644;80;21532;-80
2021/03/15 00:36:09;;;;;;;7.67;3.80;;;;;;;1.37;100.00;99630.21;1789354;80;21164;-79
2021/03/15 00:38:37;;;;;;;5.93;3.57;;;;;;;1.36;100.00;99628.50;1793511;80;21003;-79
2021/03/15 00:41:05;;;;;;;4.20;3.10;;;;;;;1.36;100.00;99630.67;1793573;79;21551;-78
2021/03/15 00:43:33;;;;;;;6.87;3.13;;;;;;;1.35;100.00;99628.13;1814858;78;20996;-78
2021/03/15 00:46:01;;;;;;;5.37;3.37;;;;;;;1.33;100.00;99622.45;1808582;79;20939;-79
2021/03/15 00:48:29;;;;;;;5.70;3.80;;;;;;;1.33;100.00;99618.95;1795225;79;21108;-79
2021/03/15 00:50:57;;;;;;;6.30;3.67;;;;;;;1.33;100.00;99616.30;1797112;79;21115;-79
2021/03/15 00:53:25;;;;;;;7.30;3.57;;;;;;;1.32;100.00;99610.09;1825996;78;21040;-79
2021/03/15 00:55:54;;;;;;;3.23;2.33;;;;;;;1.32;100.00;99615.92;1825952;78;21167;-79
2021/03/15 00:58:22;;;;;;;6.20;2.90;;;;;;;1.32;100.00;99613.25;1814978;78;21143;-78
2021/03/15 01:00:50;;;;;;;8.30;3.50;;;;;;;1.32;100.00;99606.09;1801581;79;22179;-78
2021/03/15 01:03:22;;;;;;;8.23;4.20;;;;;;;1.34;100.00;99611.31;1756856;81;26909;-80
2021/03/15 01:08:30;;;;;;;4.87;2.93;;;;;;;1.35;100.00;99599.70;1844780;76;26786;-79
2021/03/15 01:10:59;;;;;;;6.00;3.60;;;;;;;1.32;100.00;99611.42;1815453;79;20992;-79
2021/03/15 01:13:27;;;;;;;9.30;4.53;;;;;;;1.32;100.00;99609.26;1815352;79;21773;-78
2021/03/15 01:15:56;;;;;;;4.57;2.83;;;;;;;1.32;100.00;99611.92;1815133;79;20992;-79
2021/03/15 01:18:24;;;;;;;8.03;3.80;;;;;;;1.33;100.00;99615.80;1815189;77;20945;-79
2021/03/15 01:20:52;;;;;;;2.63;2.27;;;;;;;1.34;100.00;99612.64;1815217;79;21564;-79
2021/03/15 01:23:21;;;;;;;3.50;2.93;;;;;;;1.36;100.00;99613.85;1815305;79;21032;-78
2021/03/15 01:25:48;;;;;;;5.47;2.60;;;;;;;1.37;100.00;99616.40;1815287;79;21473;-78
2021/03/15 01:28:18;;;;;;;2.30;2.10;;;;;;;1.39;100.00;99609.63;1815268;77;21534;-79
2021/03/15 01:30:47;;;;;;;2.60;2.17;;;;;;;1.39;100.00;99605.13;1815492;79;21020;-79
2021/03/15 01:33:16;;;;;;;2.20;1.70;;;;;;;1.38;100.00;99617.23;1815167;79;21510;-81
2021/03/15 01:35:43;;;;;;;2.10;1.90;;;;;;;1.38;100.00;99620.77;1815534;78;20937;-79
2021/03/15 01:38:11;;;;;;;6.10;2.77;;;;;;;1.37;100.00;99612.41;1815296;79;22230;-79
2021/03/15 01:40:40;;;;;;;5.87;3.30;;;;;;;1.36;100.00;99623.17;1815139;79;20988;-79
2021/03/15 01:43:09;;;;;;;7.73;3.97;;;;;;;1.36;100.00;99612.03;1818904;79;21028;-78
2021/03/15 01:45:37;;;;;;;6.27;2.30;;;;;;;1.37;100.00;99619.56;1819438;78;20901;-79
2021/03/15 01:48:13;;;;;;;3.10;2.60;;;;;;;1.36;100.00;99612.03;1818695;77;21014;-79
2021/03/15 01:50:48;;;;;;;3.97;2.60;;;;;;;1.33;100.00;99609.63;1748318;80;21199;-79
2021/03/15 01:53:18;;;;;;;5.70;3.00;;;;;;;1.29;100.00;99610.36;1747102;81;21090;-79
2021/03/15 01:55:46;;;;;;;4.17;3.13;;;;;;;1.23;100.00;99602.84;1747567;82;21476;-79
2021/03/15 01:58:14;;;;;;;2.80;2.23;;;;;;;1.19;100.00;99605.86;1769950;81;21016;-80
2021/03/15 02:00:44;;;;;;;4.73;2.47;;;;;;;1.16;100.00;99606.96;1752110;81;20977;-79
2021/03/15 02:03:14;;;;;;;1.77;1.63;;;;;;;1.13;100.00;99609.40;1794804;80;21373;-79
2021/03/15 02:05:42;;;;;;;1.77;1.67;;;;;;;1.14;100.00;99607.08;1772144;79;21568;-79
2021/03/15 02:08:10;;;;;;;2.90;1.73;;;;;;;1.14;100.00;99607.08;1799559;79;21033;-80
2021/03/15 02:10:39;;;;;;;2.37;2.17;;;;;;;1.16;100.00;99614.95;1766683;81;21557;-80
2021/03/15 02:13:41;;;;;;;8.67;3.83;;;;;;;1.18;100.00;99609.52;1798294;79;21009;-78
2021/03/15 02:16:30;;;;;;;7.57;3.60;;;;;;;1.16;100.00;99606.96;1763121;81;22129;-78
2021/03/15 02:19:21;;;;;;;7.57;3.27;;;;;;;1.16;100.00;99608.79;1685389;85;21034;-79
2021/03/15 02:22:30;;;;;;;2.40;2.20;;;;;;;1.14;100.00;99612.91;1688353;85;20978;-78
2021/03/15 02:25:55;;;;;;;5.23;2.93;;;;;;;1.13;100.00;99612.52;1848304;77;27167;-79
2021/03/15 02:29:00;;;;;;;2.53;2.33;;;;;;;1.07;100.00;99611.69;1809404;79;20915;-78
2021/03/15 02:32:12;;;;;;;5.67;3.57;;;;;;;1.04;100.00;99614.59;1804680;79;21193;-78
2021/03/15 02:35:01;;;;;;;5.60;2.63;;;;;;;1.02;100.00;99618.70;1741240;82;21117;-80
2021/03/15 02:37:37;;;;;;;4.97;2.43;;;;;;;1.04;100.00;99617.25;1738947;82;20990;-78
2021/03/15 02:40:11;;;;;;;3.63;2.30;;;;;;;1.04;100.00;99616.75;1793486;80;20935;-79
2021/03/15 02:42:39;;;;;;;2.77;2.10;;;;;;;1.07;100.00;99610.36;1796383;79;21025;-77
2021/03/15 02:45:08;;;;;;;4.20;2.73;;;;;;;1.10;100.00;99607.46;1775416;79;21212;-77
2021/03/15 02:47:38;;;;;;;4.23;2.73;;;;;;;1.12;100.00;99608.19;1806887;78;21026;-78
2021/03/15 02:50:09;;;;;;;1.87;1.73;;;;;;;1.14;100.00;99611.08;1815287;79;21069;-78
2021/03/15 02:52:47;;;;;;;6.97;3.60;;;;;;;1.16;100.00;99609.63;1815156;79;21015;-79
2021/03/15 02:55:18;;;;;;;3.50;2.10;;;;;;;1.17;100.00;99610.47;1815291;79;21003;-78
2021/03/15 02:57:46;;;;;;;2.63;2.07;;;;;;;1.16;100.00;99616.78;1815113;79;21438;-78
2021/03/15 03:00:16;;;;;;;1.70;1.60;;;;;;;1.14;100.00;99618.23;1815284;79;21134;-77
2021/03/15 03:02:45;;;;;;;2.27;2.07;;;;;;;1.12;100.00;99612.18;1814944;79;21489;-79
2021/03/15 03:05:16;;;;;;;2.83;2.37;;;;;;;1.10;100.00;99618.95;1783705;79;20888;-78
2021/03/15 03:07:50;;;;;;;1.60;1.50;;;;;;;1.09;100.00;99619.07;1815474;79;20920;-78
2021/03/15 03:10:20;;;;;;;1.75;1.40;;;;;;;1.09;100.00;99618.58;1815325;79;21423;-79
2021/03/15 03:12:48;;;;;;;3.63;2.00;;;;;;;1.10;100.00;99616.78;1815096;79;21128;-77
2021/03/15 03:15:18;;;;;;;5.07;2.77;;;;;;;1.09;100.00;99620.40;1757493;79;20955;-78
2021/03/15 03:17:46;;;;;;;3.73;2.40;;;;;;;1.06;100.00;99620.63;1815146;79;21094;-79
2021/03/15 03:20:17;;;;;;;9.37;3.97;;;;;;;1.05;100.00;99617.13;1815174;79;21112;-77
2021/03/15 03:22:46;;;;;;;3.00;2.13;;;;;;;1.05;100.00;99616.30;1815113;79;20979;-78
2021/03/15 03:25:20;;;;;;;3.53;1.90;;;;;;;1.04;100.00;99617.25;1805957;78;21051;-79
2021/03/15 03:27:55;;;;;;;3.60;1.73;;;;;;;1.03;100.00;99619.08;1810514;79;21067;-78
2021/03/15 03:30:33;;;;;;;2.60;2.10;;;;;;;1.03;100.00;99611.58;1845465;76;27326;-79
2021/03/15 03:33:07;;;;;;;5.80;2.80;;;;;;;0.95;100.00;99613.00;1815402;79;20917;-79
2021/03/15 03:35:37;;;;;;;1.67;1.57;;;;;;;0.90;100.00;99612.54;1815252;78;21368;-79
2021/03/15 03:38:04;;;;;;;1.70;1.47;;;;;;;0.87;100.00;99606.61;1728695;81;21565;-80
2021/03/15 03:40:32;;;;;;;3.20;1.90;;;;;;;0.85;100.00;99609.84;1727974;83;21476;-80
2021/03/15 03:43:00;;;;;;;2.73;2.10;;;;;;;0.83;100.00;99612.63;1727847;83;21048;-79
2021/03/15 03:45:29;;;;;;;4.70;2.40;;;;;;;0.82;100.00;99609.61;1727316;83;20922;-80
2021/03/15 03:47:57;;;;;;;2.47;2.17;;;;;;;0.82;100.00;99609.61;1726965;83;21567;-79
2021/03/15 03:50:28;;;;;;;3.30;1.67;;;;;;;0.83;100.00;99610.45;1696458;84;21053;-79
2021/03/15 03:53:27;;;;;;;4.43;2.27;;;;;;;0.83;100.00;99605.97;1726851;83;21597;-79
2021/03/15 03:56:05;;;;;;;2.83;2.00;;;;;;;0.84;100.00;99609.01;1696707;84;21077;-78
2021/03/15 03:58:46;;;;;;;9.47;4.40;;;;;;;0.88;100.00;99602.47;1829586;76;27820;-79
2021/03/15 04:01:31;;;;;;;4.60;2.47;;;;;;;0.91;100.00;99599.58;1845630;76;27130;-80
2021/03/15 04:04:00;;;;;;;4.47;2.67;;;;;;;0.93;100.00;99612.77;1815395;79;20946;-78
2021/03/15 04:06:29;;;;;;;7.13;4.33;;;;;;;0.95;100.00;99614.83;1759112;79;21513;-79
2021/03/15 04:09:14;;;;;;;8.53;4.70;;;;;;;0.97;100.00;99613.37;1810743;79;21083;-79
2021/03/15 04:11:49;;;;;;;9.20;4.30;;;;;;;1.00;100.00;99620.64;1815458;79;21479;-79
2021/03/15 04:14:20;;;;;;;6.90;3.67;;;;;;;1.02;100.00;99609.38;1815375;79;20984;-78
2021/03/15 04:16:47;;;;;;;6.00;3.20;;;;;;;1.05;100.00;99617.13;1815389;77;21007;-79
2021/03/15 04:19:15;;;;;;;4.93;2.80;;;;;;;1.06;100.00;99618.84;1815363;79;22521;-79
2021/03/15 04:21:43;;;;;;;4.20;2.63;;;;;;;1.08;100.00;99614.23;1784188;79;20940;-79
2021/03/15 04:24:11;;;;;;;3.83;2.23;;;;;;;1.10;100.00;99609.63;1815398;79;20929;-78
2021/03/15 04:26:39;;;;;;;3.93;2.83;;;;;;;1.11;100.00;99607.31;1815388;79;21043;-79
2021/03/15 04:29:07;;;;;;;3.47;1.93;;;;;;;1.16;100.00;99613.63;1815482;78;20988;-78
2021/03/15 04:31:36;;;;;;;1.53;1.43;;;;;;;1.20;100.00;99612.41;1784357;79;21159;-80
2021/03/15 04:34:05;;;;;;;3.33;2.40;;;;;;;1.24;100.00;99610.34;1784893;79;21036;-79
2021/03/15 04:36:33;;;;;;;10.23;3.10;;;;;;;1.27;100.00;99614.94;1784314;79;21601;-81
2021/03/15 04:39:03;;;;;;;3.67;2.43;;;;;;;1.32;100.00;99610.59;1815145;79;21090;-79
2021/03/15 04:41:31;;;;;;;7.63;2.93;;;;;;;1.37;100.00;99615.56;1815512;79;21024;-78
2021/03/15 04:43:59;;;;;;;4.77;3.20;;;;;;;1.39;100.00;99614.95;1850780;77;21875;-80
2021/03/15 04:46:26;;;;;;;5.30;2.70;;;;;;;1.39;100.00;99610.95;1861053;77;20993;-81
2021/03/15 04:48:55;;;;;;;5.27;2.37;;;;;;;1.39;100.00;99613.61;1821214;77;20999;-79
2021/03/15 04:51:22;;;;;;;3.57;2.13;;;;;;;1.40;100.00;99612.63;1797392;78;20980;-79
2021/03/15 04:53:50;;;;;;;1.53;1.10;;;;;;;1.41;100.00;99611.17;1797379;79;21481;-79
2021/03/15 04:56:18;;;;;;;5.93;1.80;;;;;;;1.43;100.00;99607.90;1797350;79;21025;-79
2021/03/15 04:58:49;;;;;;;5.13;3.07;;;;;;;1.48;100.00;99606.20;1796928;79;21039;-77
2021/03/15 05:01:18;;;;;;;3.50;2.70;;;;;;;1.53;100.00;99604.52;1797186;77;20987;-78
2021/03/15 05:03:49;;;;;;;5.33;3.03;;;;;;;1.57;100.00;99606.80;1766517;79;21007;-78
2021/03/15 05:06:17;;;;;;;5.07;2.57;;;;;;;1.62;100.00;99603.77;1797173;79;20995;-77
2021/03/15 05:08:47;;;;;;;3.50;2.83;;;;;;;1.70;100.00;99610.67;1797278;79;21190;-78
2021/03/15 05:11:16;;;;;;;2.63;2.20;;;;;;;1.76;100.00;99608.81;1798672;79;21066;-78
2021/03/15 05:13:45;;;;;;;5.07;1.93;;;;;;;1.83;100.00;99606.01;1800287;79;21036;-78
2021/03/15 05:16:12;;;;;;;1.80;1.70;;;;;;;1.92;100.00;99604.41;1800829;79;21028;-78
2021/03/15 05:18:40;;;;;;;4.43;2.50;;;;;;;2.02;100.00;99613.34;1799456;79;20991;-77
2021/03/15 05:21:09;;;;;;;4.90;3.20;;;;;;;2.12;100.00;99612.08;1796647;79;21349;-78
2021/03/15 05:23:38;;;;;;;3.67;2.60;;;;;;;2.20;100.00;99610.97;1796555;79;21035;-79
2021/03/15 05:26:05;;;;;;;3.43;2.77;;;;;;;2.28;100.00;99608.98;1796584;77;21209;-79
2021/03/15 05:28:33;;;;;;;6.20;3.93;;;;;;;2.37;100.00;99610.03;1796550;79;21475;-78
2021/03/15 05:31:03;;;;;;;4.23;2.83;;;;;;;2.42;100.00;99608.66;1796670;79;20984;-77
2021/03/15 05:33:33;;;;;;;4.00;2.50;;;;;;;2.51;100.00;99607.05;1796607;79;21193;-78
2021/03/15 05:36:01;;;;;;;4.27;2.60;;;;;;;2.59;100.00;99600.58;1765740;79;21016;-77
2021/03/15 05:38:29;;;;;;;4.23;2.60;;;;;;;2.70;100.00;99605.00;1796251;79;21601;-78
2021/03/15 05:40:59;;;;;;;3.23;2.80;;;;;;;2.80;100.00;99604.57;1796438;79;20980;-78
2021/03/15 05:43:34;;;;;;;4.57;2.70;;;;;;;2.92;100.00;99604.48;1804438;79;20989;-78
2021/03/15 05:46:36;;;;;;;6.70;3.00;;;;;;;3.04;100.00;99606.92;1734548;82;22122;-78
2021/03/15 05:49:46;;;;;;;6.83;2.87;;;;;;;3.13;100.00;99604.44;1768963;79;21019;-78
2021/03/15 05:53:04;;;;;;;5.53;2.93;;;;;;;3.23;100.00;99603.50;1771086;81;21211;-78
2021/03/15 05:55:39;;;;;;;6.50;2.90;;;;;;;3.35;100.00;99601.59;1771111;81;20999;-78
2021/03/15 05:58:52;;;;;;;6.80;3.60;;;;;;;3.41;100.00;99594.34;1771168;80;21564;-79
2021/03/15 06:01:40;;;;;;;4.40;2.77;;;;;;;3.46;100.00;99601.97;1770834;80;22368;-75
2021/03/15 06:04:20;;;;;;;5.63;3.00;;;;;;;3.50;100.00;99603.88;1769104;81;21577;-75
2021/03/15 06:09:20;;;;;;;10.60;4.47;;;;;;;3.56;100.00;99607.33;1734474;81;21126;-75
2021/03/15 06:11:50;;;;;;;7.47;4.13;;;;;;;3.56;100.00;99606.86;1734415;82;21613;-74
2021/03/15 06:14:18;;;;;;;6.50;3.80;;;;;;;3.60;100.00;99600.24;1710220;82;21198;-75
2021/03/15 06:16:54;;;;;;;6.70;3.50;;;;;;;3.69;100.00;99602.59;1845422;76;26462;-75
2021/03/15 06:19:24;;;;;;;7.67;3.10;;;;;;;3.70;100.00;99608.77;1815485;79;20909;-75
2021/03/15 06:21:52;;;;;;;9.13;4.30;;;;;;;3.68;100.00;99606.23;1815398;78;21331;-74
2021/03/15 06:24:20;;;;;;;7.03;3.70;;;;;;;3.73;100.00;99610.67;1815228;79;21494;-75
2021/03/15 06:26:48;;;;;;;11.07;4.77;;;;;;;3.85;100.00;99602.05;1784365;79;20999;-74
2021/03/15 06:29:16;;;;;;;13.33;4.90;;;;;;;3.99;100.00;99615.02;1815366;79;20920;-74
2021/03/15 06:34:17;;;;;;;11.70;5.20;;;;;;;4.40;100.00;99602.84;1804886;79;21188;-74
2021/03/15 06:36:47;;;;;;;14.03;5.97;;;;;;;4.58;100.00;99609.66;1808686;79;21009;-75
2021/03/15 06:39:16;;;;;;;18.47;7.47;;;;;;;4.78;100.00;99610.48;1808715;79;21021;-74
2021/03/15 06:41:43;;;;;;;17.23;6.40;;;;;;;4.95;100.00;99606.20;1808592;79;21119;-73
2021/03/15 06:44:12;;;;;;;11.27;5.00;;;;;;;5.13;100.00;99604.94;1791704;79;21066;-74
2021/03/15 06:46:40;;;;;;;13.40;5.37;;;;;;;5.40;100.00;99605.95;1788695;80;21191;-72
2021/03/15 06:49:09;;;;;;;15.70;6.07;;;;;;;5.60;100.00;99582.58;1788858;78;21047;-75
2021/03/15 06:51:47;;;;;;;11.30;5.20;;;;;;;5.76;100.00;99596.67;1789160;80;21015;-74
2021/03/15 06:54:26;;;;;;;15.37;5.07;;;;;;;5.96;100.00;99592.88;1807098;77;26627;-75
2021/03/15 06:57:20;;;;;;;15.50;5.77;;;;;;;6.10;100.00;99597.37;1769089;80;21045;-75
2021/03/15 06:59:53;;;;;;;10.70;4.55;;;;;;;6.28;100.00;99598.20;1723053;81;21107;-75
2021/03/15 07:02:29;;;;;;;14.07;5.90;;;;;;;6.42;100.00;99588.26;1852173;76;26246;-75
2021/03/15 07:05:12;;;;;;;12.40;4.93;;;;;;;6.53;100.00;99596.56;1782929;80;21019;-74
2021/03/15 07:07:49;;;;;;;14.03;5.12;;;;;;;6.72;100.00;99590.17;1854820;77;22231;-75
2021/03/15 07:10:30;;;;;;;13.93;6.20;;;;;;;6.91;100.00;99582.91;1853090;77;21542;-76
2021/03/15 07:13:20;;;;;;;14.93;6.33;;;;;;;7.09;100.00;99594.44;1741445;81;21029;-75
2021/03/15 07:15:54;;;;;;;19.67;6.83;;;;;;;7.25;100.00;99593.67;1741688;81;21056;-75
2021/03/15 07:18:29;;;;;;;13.47;6.17;;;;;;;7.38;100.00;99594.09;1739033;82;21025;-76
2021/03/15 07:21:04;;;;;;;12.97;5.53;;;;;;;7.49;100.00;99589.40;1729797;82;21215;-76
2021/03/15 07:23:49;;;;;;;19.00;6.53;;;;;;;7.60;100.00;99587.27;1710797;83;21661;-79
2021/03/15 07:26:22;;;;;;;12.30;5.97;;;;;;;7.66;100.00;99579.55;1710592;83;21033;-78
2021/03/15 07:28:51;;;;;;;15.17;6.20;;;;;;;7.65;100.00;99577.38;1728723;81;21018;-74
2021/03/15 07:31:32;;;;;;;15.80;5.97;;;;;;;7.75;100.00;99581.25;1744428;82;21083;-77
2021/03/15 07:34:06;;;;;;;14.80;5.57;;;;;;;7.88;100.00;99578.94;1731785;82;21361;-75
2021/03/15 07:36:53;;;;;;;15.63;5.37;;;;;;;8.07;100.00;99579.64;1725222;82;21093;-74
2021/03/15 07:39:22;;;;;;;14.70;5.33;;;;;;;8.28;100.00;99580.50;1736714;80;21080;-77
2021/03/15 07:41:52;;;;;;;15.90;6.00;;;;;;;8.49;100.00;99578.69;1733084;82;21076;-79
2021/03/15 07:44:26;;;;;;;24.33;8.73;;;;;;;8.61;100.00;99582.73;1740314;81;21064;-82
2021/03/15 07:46:58;;;;;;;16.20;6.57;;;;;;;8.68;100.00;99578.86;1731834;80;21302;-79
2021/03/15 07:49:39;;;;;;;14.27;5.60;;;;;;;8.77;100.00;99564.34;1856552;76;22811;-79
2021/03/15 07:52:13;;;;;;;13.13;5.30;;;;;;;8.62;100.00;99570.09;1827823;77;20972;-80
2021/03/15 07:54:43;;;;;;;14.80;5.23;;;;;;;8.60;100.00;99557.29;1828307;78;21746;-81
2021/03/15 07:57:20;;;;;;;15.87;5.90;;;;;;;8.74;100.00;99566.03;1827505;78;21009;-76
2021/03/15 07:59:54;;;;;;;9.27;4.83;;;;;;;8.94;100.00;99565.14;1830774;78;21131;-81
2021/03/15 08:02:35;;;;;;;14.57;5.63;;;;;;;9.14;100.00;99560.22;1774173;80;21238;-79
2021/03/15 08:05:04;;;;;;;32.17;15.40;;;;;;;9.29;100.00;99557.63;1774545;80;20977;-76
2021/03/15 08:07:32;;;;;;;22.73;7.40;;;;;;;9.46;100.00;99549.80;1767242;80;21557;-76
2021/03/15 08:10:00;;;;;;;14.47;6.47;;;;;;;9.75;100.00;99557.73;1774508;80;21005;-77
2021/03/15 08:12:35;;;;;;;15.97;5.90;;;;;;;9.98;100.00;99559.63;1766602;80;21058;-80
2021/03/15 08:15:14;;;;;;;17.87;7.67;;;;;;;10.16;100.00;99553.41;1835664;76;22651;-81
2021/03/15 08:17:44;;;;;;;16.47;6.70;;;;;;;10.15;100.00;99557.67;1797181;79;21032;-79
2021/03/15 08:20:14;;;;;;;19.97;7.43;;;;;;;10.15;100.00;99553.10;1795157;79;22270;-75
2021/03/15 08:22:43;;;;;;;33.37;11.20;;;;;;;10.15;100.00;99551.75;1784796;79;20988;-78
2021/03/15 08:25:12;;;;;;;26.47;11.47;;;;;;;10.25;100.00;99542.03;1801301;79;21646;-76
2021/03/15 08:27:41;;;;;;;21.60;8.43;;;;;;;10.38;100.00;99537.42;1786440;79;21000;-75
2021/03/15 08:30:21;;;;;;;19.87;8.20;;;;;;;10.57;100.00;99535.56;1726048;82;21639;-75
2021/03/15 08:32:49;;;;;;;20.53;7.93;;;;;;;10.72;100.00;99544.20;1764495;80;22134;-76
2021/03/15 08:35:18;;;;;;;16.93;7.40;;;;;;;10.90;100.00;99528.97;1765621;80;21011;-77
2021/03/15 08:38:05;;;;;;;17.57;7.40;;;;;;;11.09;100.00;99534.35;1773701;80;21045;-78
2021/03/15 08:40:48;;;;;;;19.53;8.07;;;;;;;11.25;100.00;99526.55;1745111;82;21045;-77
2021/03/15 08:43:25;;;;;;;16.87;6.80;;;;;;;11.35;100.00;99528.42;1765080;81;21013;-77
2021/03/15 08:46:08;;;;;;;16.50;6.78;;;;;;;11.39;100.00;99529.23;1766603;80;21195;-78
2021/03/15 08:48:48;;;;;;;21.55;7.67;;;;;;;11.35;100.00;99526.58;1746993;81;21033;-77
2021/03/15 08:51:37;;;;;;;19.77;7.55;;;;;;;11.37;100.00;99532.64;1747775;81;21203;-77
2021/03/15 08:54:09;;;;;;;21.40;8.95;;;;;;;11.39;100.00;99527.87;1670943;85;21195;-75
2021/03/15 08:56:39;;;;;;;20.70;9.00;;;;;;;11.27;100.00;99525.32;1692546;84;21204;-74
2021/03/15 08:59:11;;;;;;;20.43;8.90;;;;;;;11.17;100.00;99531.03;1693765;83;21213;-77
2021/03/15 09:01:52;;;;;;;20.88;9.78;;;;;;;11.29;100.00;99527.32;1694945;83;21241;-75
2021/03/15 09:04:41;;;;;;;18.67;8.10;;;;;;;11.47;100.00;99529.63;1701951;84;21118;-78
2021/03/15 09:07:35;;;;;;;20.15;7.97;;;;;;;11.55;100.00;99524.11;1701610;84;21081;-76
2021/03/15 09:10:30;;;;;;;19.52;8.00;;;;;;;11.57;100.00;99521.22;1702104;84;21618;-77
2021/03/15 09:13:15;;;;;;;19.70;7.97;;;;;;;11.75;100.00;99516.73;1815857;77;22815;-76
2021/03/15 09:15:46;;;;;;;20.45;8.63;;;;;;;11.78;100.00;99516.36;1777429;80;21504;-75
2021/03/15 09:18:48;;;;;;;18.65;7.95;;;;;;;11.90;100.00;99520.77;1772416;79;21391;-75
2021/03/15 09:21:30;;;;;;;14.63;6.95;;;;;;;11.99;100.00;99518.77;1777083;80;20986;-74
2021/03/15 09:24:00;;;;;;;25.05;9.03;;;;;;;12.14;100.00;99517.67;1777328;80;21124;-74
2021/03/15 09:26:32;;;;;;;;;;;;;;;12.35;100.00;99517.35;1778327;80;21022;-74
2021/03/15 09:29:03;;;;;;;18.85;7.90;;;;;;;12.47;100.00;99516.31;1776924;80;20200;-75
2021/03/15 09:31:31;;;;;;;17.48;6.65;;;;;;;12.54;100.00;99510.42;1741096;80;21655;-74
2021/03/15 09:34:08;;;;;;;20.60;7.40;;;;;;;12.63;100.00;99509.77;1775495;80;21046;-76
2021/03/15 09:36:36;;;;;;;19.40;7.45;;;;;;;12.77;96.78;99514.24;1773614;80;21604;-75
2021/03/15 09:39:05;;;;;;;21.57;7.85;;;;;;;12.77;91.51;99502.03;1777173;80;21174;-75
2021/03/15 09:41:35;;;;;;;15.10;6.70;;;;;;;12.87;98.28;99506.59;1783407;79;21101;-76
2021/03/15 09:44:06;;;;;;;19.00;7.00;;;;;;;13.13;94.06;99505.59;1769952;80;21727;-78
2021/03/15 09:46:35;;;;;;;20.50;7.42;;;;;;;13.24;92.47;99504.50;1769021;79;21026;-76
2021/03/15 09:49:04;;;;;;;22.48;7.58;;;;;;;13.36;91.37;99499.34;1781777;79;20990;-79
2021/03/15 09:51:32;;;;;;;15.58;6.45;;;;;;;13.44;94.39;99498.36;1781559;79;21047;-79
2021/03/15 09:54:01;;;;;;;19.23;6.67;;;;;;;13.53;97.75;99496.27;1781928;79;21095;-76
2021/03/15 09:56:31;;;;;;;17.90;6.40;;;;;;;13.66;96.73;99490.36;1781117;79;22251;-80
2021/03/15 09:59:12;;;;;;;15.60;6.25;;;;;;;13.77;92.32;99497.08;1777616;79;21042;-74
2021/03/15 10:01:50;;;;;;;15.67;6.37;;;;;;;13.83;83.91;99490.84;1834019;76;22815;-74
2021/03/15 10:04:23;;;;;;;15.58;5.20;;;;;;;13.87;86.43;99489.91;1730331;82;21033;-76
2021/03/15 10:07:17;;;;;;;14.93;5.53;;;;;;;13.93;89.48;99480.08;1833600;76;22497;-75
2021/03/15 10:09:53;;;;;;;11.50;5.72;;;;;;;13.92;93.59;99487.41;1667942;84;21104;-72
2021/03/15 10:12:40;;;;;;;10.95;5.80;;;;;;;13.94;95.73;99481.23;1719147;83;22336;-81
2021/03/15 10:15:19;;;;;;;10.77;5.00;;;;;;;14.09;98.04;99476.13;1806996;77;22792;-79
2021/03/15 10:18:06;;;;;;;8.63;4.78;;;;;;;14.07;100.00;99470.06;1764767;80;21002;-77
2021/03/15 10:20:43;;;;;;;8.68;4.53;;;;;;;14.32;100.00;99467.03;1739045;81;21188;-79
2021/03/15 10:23:19;;;;;;;7.80;3.77;;;;;;;14.49;98.32;99467.98;1731545;82;21049;-78
2021/03/15 10:26:04;;;;;;;16.50;6.72;;;;;;;14.51;95.53;99460.44;1738066;82;21519;-83
2021/03/15 10:28:51;;;;;;;16.10;5.97;;;;;;;14.51;96.67;99450.92;1838026;77;22709;-83
2021/03/15 10:31:21;;;;;;;9.05;4.80;;;;;;;14.34;94.77;99456.80;1793076;78;21290;-79
2021/03/15 10:33:52;;;;;;;9.05;4.15;;;;;;;14.27;97.50;99451.03;1749317;80;21571;-79
2021/03/15 10:36:22;;;;;;;10.23;4.50;;;;;;;14.22;99.70;99452.51;1742744;80;21049;-76
2021/03/15 10:38:52;;;;;;;7.78;4.50;;;;;;;14.08;98.81;99450.84;1728599;81;21063;-79
2021/03/15 10:41:20;;;;;;;15.45;5.67;;;;;;;13.90;99.71;99449.23;1707558;83;21008;-83
2021/03/15 10:43:48;;;;;;;12.45;5.00;;;;;;;13.85;100.00;99443.08;1736596;81;21505;-77
2021/03/15 10:46:50;;;;;;;6.70;3.80;;;;;;;13.97;100.00;99433.77;1852917;76;22892;-80
2021/03/15 10:49:24;;;;;;;9.20;4.50;;;;;;;13.95;100.00;99434.00;1822833;77;20929;-76
2021/03/15 10:51:55;;;;;;;10.70;4.37;;;;;;;13.92;100.00;99433.58;1739800;81;21519;-78
2021/03/15 10:54:33;;;;;;;19.60;6.65;;;;;;;13.98;100.00;99430.02;1707776;83;21002;-76
2021/03/15 10:57:13;;;;;;;14.00;4.78;;;;;;;14.05;100.00;99423.53;1705652;84;21053;-74
2021/03/15 10:59:51;;;;;;;12.40;4.67;;;;;;;14.24;100.00;99412.88;1893016;75;22090;-75
2021/03/15 11:02:26;;;;;;;17.57;5.65;;;;;;;14.38;100.00;99417.78;1830943;76;21455;-76
2021/03/15 11:04:58;;;;;;;10.88;4.75;;;;;;;14.56;100.00;99415.77;1742396;81;22093;-76
2021/03/15 11:07:42;;;;;;;10.00;4.87;;;;;;;14.84;100.00;99408.71;1897862;74;22685;-75
2021/03/15 11:10:25;;;;;;;8.18;3.92;;;;;;;14.99;100.00;99404.36;1787588;80;20943;-74
2021/03/15 11:12:59;;;;;;;9.13;4.47;;;;;;;15.13;100.00;99396.44;1815384;78;22514;-72
2021/03/15 11:15:38;;;;;;;6.37;3.85;;;;;;;15.26;100.00;99402.88;1782972;79;22805;-73
2021/03/15 11:18:26;;;;;;;10.03;4.75;;;;;;;15.33;99.11;99401.80;1784896;79;21012;-73
2021/03/15 11:20:58;;;;;;;11.57;5.50;;;;;;;15.45;99.45;99395.66;1795421;78;21016;-78
2021/03/15 11:23:38;;;;;;;13.28;4.75;;;;;;;15.52;97.36;99402.72;1774540;80;21045;-76
2021/03/15 11:26:15;;;;;;;10.25;4.20;;;;;;;15.53;95.62;99394.88;1781925;79;21891;-75
2021/03/15 11:28:47;;;;;;;9.73;4.80;;;;;;;15.53;92.43;99396.77;1816432;77;21061;-74
2021/03/15 11:31:22;;;;;;;8.73;4.60;;;;;;;15.47;91.69;99393.00;1698685;82;21057;-73
2021/03/15 11:33:59;;;;;;;8.45;4.05;;;;;;;15.49;88.77;99390.92;1743886;81;21000;-74
2021/03/15 11:36:40;;;;;;;11.10;5.37;;;;;;;15.60;90.25;99346.30;1736561;82;20996;-75
2021/03/15 11:39:10;;;;;;;9.00;4.45;;;;;;;15.75;88.58;99371.38;1712551;82;21390;-74
2021/03/15 11:42:01;;;;;;;12.30;4.87;;;;;;;15.89;88.69;99375.66;1878975;76;22643;-74
2021/03/15 11:44:31;;;;;;;8.38;4.40;;;;;;;15.92;84.91;99371.67;1829168;77;20957;-76
2021/03/15 11:46:59;;;;;;;20.50;8.08;;;;;;;15.78;77.13;99368.75;1846697;77;21622;-73
2021/03/15 11:49:31;;;;;;;10.93;5.30;;;;;;;15.78;77.13;99368.75;1825764;77;20973;-75
2021/03/15 11:52:04;;;;;;;12.68;4.55;;;;;;;15.66;74.84;99366.69;1836321;77;21055;-75
2021/03/15 11:54:46;;;;;;;15.10;6.17;;;;;;;15.52;76.71;99365.94;1817093;78;21537;-76
2021/03/15 11:57:15;;;;;;;13.98;4.95;;;;;;;15.45;80.27;99359.70;1853472;77;21413;-73
2021/03/15 11:59:43;;;;;;;9.90;4.47;;;;;;;15.50;80.79;99358.52;1837143;77;21934;-72
2021/03/15 12:02:12;;;;;;;13.10;4.30;;;;;;;15.60;81.90;99353.96;1841798;76;21060;-73
2021/03/15 12:04:41;;;;;;;9.15;3.98;;;;;;;15.78;81.87;99351.03;1822145;77;20971;-76
2021/03/15 12:07:11;;;;;;;9.63;4.87;;;;;;;15.78;81.87;99351.03;1821307;78;21500;-73
2021/03/15 12:09:41;;;;;;;12.03;4.80;;;;;;;15.83;77.25;99350.67;1855203;77;21124;-72